Terminal Aerodrome Forecast
Issued by NWS Billings, MT

Home | Current Version | Previous Version | Text Only | Print | Product List | Glossary Off
Versions: 1 2 3 4 5 6 7 8 9 10 11 12 13 14 15 16 17 18

000
FTUS45 KBYZ 240539
TAFMLS
TAF
KMLS 240539Z 2406/2506 06011KT P6SM -SHRA FEW004 OVC040
     FM241000 VRB05KT P6SM VCSH SCT025 OVC035
     FM241500 32011KT P6SM FEW020 SCT040
     FM242100 06010KT P6SM VCTS SCT025CB BKN060
     FM250300 06010KT P6SM VCSH SCT025 BKN040=

USA.gov is the U.S. government's official web portal to all federal, state and local government web resources and services.